sensor_id;sensor_type;location;lat;lon;timestamp;pressure;altitude;pressure_sealevel;temperature;humidity
23166;BME280;11751;42.700;24.170;2022-08-26T00:00:43;93562.50;;;22.01;71.32
23166;BME280;11751;42.700;24.170;2022-08-26T00:03:10;93561.31;;;21.91;72.74
23166;BME280;11751;42.700;24.170;2022-08-26T00:05:36;93556.91;;;21.88;73.00
23166;BME280;11751;42.700;24.170;2022-08-26T00:08:01;93553.22;;;21.85;72.88
23166;BME280;11751;42.700;24.170;2022-08-26T00:10:27;93544.03;;;21.87;73.70
23166;BME280;11751;42.700;24.170;2022-08-26T00:12:53;93540.34;;;21.69;75.03
23166;BME280;11751;42.700;24.170;2022-08-26T00:15:19;93551.22;;;21.57;74.20
23166;BME280;11751;42.700;24.170;2022-08-26T00:17:46;93541.66;;;21.66;72.99
23166;BME280;11751;42.700;24.170;2022-08-26T00:20:13;93543.28;;;21.71;72.75
23166;BME280;11751;42.700;24.170;2022-08-26T00:22:39;93541.00;;;21.67;73.26
23166;BME280;11751;42.700;24.170;2022-08-26T00:25:06;93546.41;;;21.46;75.21
23166;BME280;11751;42.700;24.170;2022-08-26T00:27:32;93537.53;;;21.40;73.80
23166;BME280;11751;42.700;24.170;2022-08-26T00:29:59;93537.66;;;21.42;73.41
23166;BME280;11751;42.700;24.170;2022-08-26T00:32:26;93539.94;;;21.30;74.58
23166;BME280;11751;42.700;24.170;2022-08-26T00:34:51;93534.22;;;21.30;74.12
23166;BME280;11751;42.700;24.170;2022-08-26T00:37:16;93539.22;;;21.45;73.11
23166;BME280;11751;42.700;24.170;2022-08-26T00:39:42;93535.00;;;21.46;72.99
23166;BME280;11751;42.700;24.170;2022-08-26T00:42:08;93539.50;;;21.51;73.44
23166;BME280;11751;42.700;24.170;2022-08-26T00:44:33;93542.78;;;21.30;75.82
23166;BME280;11751;42.700;24.170;2022-08-26T00:47:02;93534.22;;;21.30;75.79
23166;BME280;11751;42.700;24.170;2022-08-26T00:49:43;93536.22;;;21.12;76.77
23166;BME280;11751;42.700;24.170;2022-08-26T00:52:15;93530.13;;;20.89;77.94
23166;BME280;11751;42.700;24.170;2022-08-26T00:54:47;93534.00;;;20.95;76.23
23166;BME280;11751;42.700;24.170;2022-08-26T00:57:16;93534.13;;;21.13;75.67
23166;BME280;11751;42.700;24.170;2022-08-26T00:59:48;93544.59;;;21.08;77.08
23166;BME280;11751;42.700;24.170;2022-08-26T01:02:15;93545.97;;;21.07;76.24
23166;BME280;11751;42.700;24.170;2022-08-26T01:04:41;93555.78;;;21.04;76.98
23166;BME280;11751;42.700;24.170;2022-08-26T01:07:07;93551.47;;;21.03;77.08
23166;BME280;11751;42.700;24.170;2022-08-26T01:09:32;93551.06;;;20.95;77.07
23166;BME280;11751;42.700;24.170;2022-08-26T01:12:00;93560.13;;;20.63;78.40
23166;BME280;11751;42.700;24.170;2022-08-26T01:14:31;93558.50;;;20.73;78.22
23166;BME280;11751;42.700;24.170;2022-08-26T01:16:57;93554.38;;;20.90;78.13
23166;BME280;11751;42.700;24.170;2022-08-26T01:22:54;93551.41;;;20.46;80.48
23166;BME280;11751;42.700;24.170;2022-08-26T01:25:21;93553.00;;;20.49;80.44
23166;BME280;11751;42.700;24.170;2022-08-26T01:27:48;93545.88;;;20.07;81.96
23166;BME280;11751;42.700;24.170;2022-08-26T01:30:15;93543.19;;;20.38;79.74
23166;BME280;11751;42.700;24.170;2022-08-26T01:32:41;93549.81;;;20.43;79.37
23166;BME280;11751;42.700;24.170;2022-08-26T01:35:08;93547.59;;;20.55;79.62
23166;BME280;11751;42.700;24.170;2022-08-26T01:37:35;93543.66;;;20.62;79.10
23166;BME280;11751;42.700;24.170;2022-08-26T01:40:04;93544.97;;;20.59;80.04
23166;BME280;11751;42.700;24.170;2022-08-26T01:42:31;93541.75;;;20.66;80.03
23166;BME280;11751;42.700;24.170;2022-08-26T01:45:04;93538.91;;;20.66;80.02
23166;BME280;11751;42.700;24.170;2022-08-26T01:47:32;93542.69;;;20.70;79.16
23166;BME280;11751;42.700;24.170;2022-08-26T01:50:02;93547.13;;;20.73;79.64
23166;BME280;11751;42.700;24.170;2022-08-26T01:52:29;93546.38;;;20.73;79.47
23166;BME280;11751;42.700;24.170;2022-08-26T01:54:57;93532.22;;;20.60;81.00
23166;BME280;11751;42.700;24.170;2022-08-26T01:57:25;93537.09;;;20.44;81.03
23166;BME280;11751;42.700;24.170;2022-08-26T01:59:54;93541.91;;;20.55;79.69
23166;BME280;11751;42.700;24.170;2022-08-26T02:02:22;93545.03;;;20.18;82.18
23166;BME280;11751;42.700;24.170;2022-08-26T02:04:51;93546.78;;;20.39;80.99
23166;BME280;11751;42.700;24.170;2022-08-26T02:07:19;93542.22;;;20.47;80.96
23166;BME280;11751;42.700;24.170;2022-08-26T02:09:45;93543.38;;;20.56;81.08
23166;BME280;11751;42.700;24.170;2022-08-26T02:12:13;93543.81;;;20.50;80.22
23166;BME280;11751;42.700;24.170;2022-08-26T02:14:45;93537.91;;;20.60;79.55
23166;BME280;11751;42.700;24.170;2022-08-26T02:17:14;93543.38;;;20.56;80.25
23166;BME280;11751;42.700;24.170;2022-08-26T02:19:45;93540.78;;;20.33;80.41
23166;BME280;11751;42.700;24.170;2022-08-26T02:22:14;93545.50;;;20.42;80.72
23166;BME280;11751;42.700;24.170;2022-08-26T02:27:15;93531.63;;;20.34;81.46
23166;BME280;11751;42.700;24.170;2022-08-26T02:29:44;93534.25;;;20.44;80.52
23166;BME280;11751;42.700;24.170;2022-08-26T02:32:12;93528.88;;;20.50;80.05
23166;BME280;11751;42.700;24.170;2022-08-26T02:34:38;93533.38;;;20.55;80.22
23166;BME280;11751;42.700;24.170;2022-08-26T02:37:08;93532.94;;;20.60;79.78
23166;BME280;11751;42.700;24.170;2022-08-26T02:39:36;93520.91;;;20.62;79.70
23166;BME280;11751;42.700;24.170;2022-08-26T02:42:02;93527.88;;;20.59;79.56
23166;BME280;11751;42.700;24.170;2022-08-26T02:44:28;93530.84;;;20.61;80.10
23166;BME280;11751;42.700;24.170;2022-08-26T02:46:54;93525.22;;;20.63;79.50
23166;BME280;11751;42.700;24.170;2022-08-26T02:49:20;93529.06;;;20.54;79.68
23166;BME280;11751;42.700;24.170;2022-08-26T02:51:47;93516.56;;;20.45;79.47
23166;BME280;11751;42.700;24.170;2022-08-26T02:54:14;93530.47;;;20.39;78.57
23166;BME280;11751;42.700;24.170;2022-08-26T02:56:40;93525.09;;;20.45;78.00
23166;BME280;11751;42.700;24.170;2022-08-26T02:59:06;93533.63;;;20.45;80.09
23166;BME280;11751;42.700;24.170;2022-08-26T03:01:33;93529.19;;;20.42;79.53
23166;BME280;11751;42.700;24.170;2022-08-26T03:04:00;93524.59;;;20.35;79.21
23166;BME280;11751;42.700;24.170;2022-08-26T03:06:27;93524.66;;;20.37;79.24
23166;BME280;11751;42.700;24.170;2022-08-26T03:08:52;93531.41;;;20.44;80.04
23166;BME280;11751;42.700;24.170;2022-08-26T03:11:18;93524.03;;;20.39;79.37
23166;BME280;11751;42.700;24.170;2022-08-26T03:13:44;93529.72;;;20.39;79.92
23166;BME280;11751;42.700;24.170;2022-08-26T03:16:10;93524.00;;;20.10;82.80
23166;BME280;11751;42.700;24.170;2022-08-26T03:18:36;93529.16;;;20.13;80.46
23166;BME280;11751;42.700;24.170;2022-08-26T03:21:13;93530.81;;;20.05;81.71
23166;BME280;11751;42.700;24.170;2022-08-26T03:23:40;93533.78;;;20.07;80.90
23166;BME280;11751;42.700;24.170;2022-08-26T03:26:08;93535.13;;;20.19;80.26
23166;BME280;11751;42.700;24.170;2022-08-26T03:28:34;93538.09;;;20.21;80.88
23166;BME280;11751;42.700;24.170;2022-08-26T03:31:00;93530.38;;;20.24;80.47
23166;BME280;11751;42.700;24.170;2022-08-26T03:33:26;93543.44;;;20.29;80.29
23166;BME280;11751;42.700;24.170;2022-08-26T03:35:52;93533.34;;;20.26;79.97
23166;BME280;11751;42.700;24.170;2022-08-26T03:38:22;93533.66;;;20.18;82.76
23166;BME280;11751;42.700;24.170;2022-08-26T03:40:49;93528.19;;;20.09;82.27
23166;BME280;11751;42.700;24.170;2022-08-26T03:43:15;93530.28;;;20.08;81.40
23166;BME280;11751;42.700;24.170;2022-08-26T03:45:41;93519.06;;;19.97;82.08
23166;BME280;11751;42.700;24.170;2022-08-26T03:48:07;93519.88;;;19.99;81.83
23166;BME280;11751;42.700;24.170;2022-08-26T03:50:33;93538.00;;;20.06;81.82
23166;BME280;11751;42.700;24.170;2022-08-26T03:53:00;93527.03;;;20.14;81.37
23166;BME280;11751;42.700;24.170;2022-08-26T03:55:27;93521.34;;;20.14;82.49
23166;BME280;11751;42.700;24.170;2022-08-26T03:57:56;93528.94;;;19.96;83.19
23166;BME280;11751;42.700;24.170;2022-08-26T04:00:22;93511.03;;;20.07;81.39
23166;BME280;11751;42.700;24.170;2022-08-26T04:02:47;93511.16;;;20.09;81.66
23166;BME280;11751;42.700;24.170;2022-08-26T04:05:16;93536.59;;;19.93;81.77
23166;BME280;11751;42.700;24.170;2022-08-26T04:07:43;93515.25;;;20.06;80.18
23166;BME280;11751;42.700;24.170;2022-08-26T04:10:15;93519.78;;;20.11;80.73
23166;BME280;11751;42.700;24.170;2022-08-26T04:12:42;93527.44;;;20.08;79.97
23166;BME280;11751;42.700;24.170;2022-08-26T04:15:10;93525.69;;;20.01;80.61
23166;BME280;11751;42.700;24.170;2022-08-26T04:17:36;93538.81;;;19.95;79.88
23166;BME280;11751;42.700;24.170;2022-08-26T04:20:03;93542.94;;;19.92;80.46
23166;BME280;11751;42.700;24.170;2022-08-26T04:22:30;93540.00;;;20.03;80.24
23166;BME280;11751;42.700;24.170;2022-08-26T04:24:55;93532.38;;;20.21;80.61
23166;BME280;11751;42.700;24.170;2022-08-26T04:27:21;93533.66;;;20.18;80.64
23166;BME280;11751;42.700;24.170;2022-08-26T04:29:47;93524.69;;;20.24;79.07
23166;BME280;11751;42.700;24.170;2022-08-26T04:32:12;93518.47;;;20.27;78.47
23166;BME280;11751;42.700;24.170;2022-08-26T04:34:38;93534.81;;;20.27;77.23
23166;BME280;11751;42.700;24.170;2022-08-26T04:37:04;93540.56;;;20.42;75.93
23166;BME280;11751;42.700;24.170;2022-08-26T04:39:31;93535.94;;;20.49;74.39
23166;BME280;11751;42.700;24.170;2022-08-26T04:41:57;93535.94;;;20.49;75.63
23166;BME280;11751;42.700;24.170;2022-08-26T04:44:24;93526.91;;;20.67;74.94
23166;BME280;11751;42.700;24.170;2022-08-26T04:46:51;93516.78;;;20.78;76.23
23166;BME280;11751;42.700;24.170;2022-08-26T04:49:17;93524.34;;;20.73;75.16
23166;BME280;11751;42.700;24.170;2022-08-26T04:51:43;93521.59;;;20.75;74.76
23166;BME280;11751;42.700;24.170;2022-08-26T04:54:09;93534.59;;;20.78;75.62
23166;BME280;11751;42.700;24.170;2022-08-26T04:56:37;93528.25;;;20.80;75.16
23166;BME280;11751;42.700;24.170;2022-08-26T04:59:05;93514.84;;;20.82;76.27
23166;BME280;11751;42.700;24.170;2022-08-26T05:01:33;93525.09;;;20.74;77.29
23166;BME280;11751;42.700;24.170;2022-08-26T05:03:58;93519.66;;;20.93;75.82
23166;BME280;11751;42.700;24.170;2022-08-26T05:06:25;93520.34;;;21.07;74.96
23166;BME280;11751;42.700;24.170;2022-08-26T05:08:54;93530.38;;;21.08;74.78
23166;BME280;11751;42.700;24.170;2022-08-26T05:11:20;93529.25;;;21.15;73.89
23166;BME280;11751;42.700;24.170;2022-08-26T05:13:46;93533.84;;;21.22;74.02
23166;BME280;11751;42.700;24.170;2022-08-26T05:16:13;93540.06;;;21.03;74.07
23166;BME280;11751;42.700;24.170;2022-08-26T05:18:40;93544.41;;;21.04;74.21
23166;BME280;11751;42.700;24.170;2022-08-26T05:21:06;93536.53;;;21.18;73.17
23166;BME280;11751;42.700;24.170;2022-08-26T05:23:36;93542.16;;;21.32;73.65
23166;BME280;11751;42.700;24.170;2022-08-26T05:26:06;93529.63;;;21.23;76.10
23166;BME280;11751;42.700;24.170;2022-08-26T05:28:32;93529.28;;;21.31;74.32
23166;BME280;11751;42.700;24.170;2022-08-26T05:30:57;93532.38;;;21.21;73.87
23166;BME280;11751;42.700;24.170;2022-08-26T05:33:23;93544.13;;;20.98;73.75
23166;BME280;11751;42.700;24.170;2022-08-26T05:35:48;93543.94;;;21.10;73.57
23166;BME280;11751;42.700;24.170;2022-08-26T05:38:16;93540.06;;;21.03;75.55
23166;BME280;11751;42.700;24.170;2022-08-26T05:40:46;93534.09;;;20.97;74.96
23166;BME280;11751;42.700;24.170;2022-08-26T05:43:14;93538.63;;;21.18;72.48
23166;BME280;11751;42.700;24.170;2022-08-26T05:45:46;93553.16;;;21.39;71.72
23166;BME280;11751;42.700;24.170;2022-08-26T05:48:15;93563.69;;;21.65;70.78
23166;BME280;11751;42.700;24.170;2022-08-26T05:50:47;93522.22;;;21.47;71.42
23166;BME280;11751;42.700;24.170;2022-08-26T05:53:15;93554.69;;;21.11;72.09
23166;BME280;11751;42.700;24.170;2022-08-26T05:55:46;93558.34;;;21.43;72.16
23166;BME280;11751;42.700;24.170;2022-08-26T05:58:12;93556.59;;;21.51;71.91
23166;BME280;11751;42.700;24.170;2022-08-26T06:00:38;93558.75;;;21.66;71.75
23166;BME280;11751;42.700;24.170;2022-08-26T06:03:03;93552.59;;;21.87;70.48
23166;BME280;11751;42.700;24.170;2022-08-26T06:05:29;93553.41;;;21.89;70.55
23166;BME280;11751;42.700;24.170;2022-08-26T06:07:54;93560.56;;;22.06;68.22
23166;BME280;11751;42.700;24.170;2022-08-26T06:10:54;93556.13;;;22.34;67.38
23166;BME280;11751;42.700;24.170;2022-08-26T06:13:22;93562.84;;;22.57;67.14
23166;BME280;11751;42.700;24.170;2022-08-26T06:15:49;93566.66;;;22.79;67.60
23166;BME280;11751;42.700;24.170;2022-08-26T06:18:23;93563.22;;;22.65;66.76
23166;BME280;11751;42.700;24.170;2022-08-26T06:20:49;93558.41;;;22.87;66.69
23166;BME280;11751;42.700;24.170;2022-08-26T06:23:16;93562.16;;;22.92;66.69
23166;BME280;11751;42.700;24.170;2022-08-26T06:26:01;93570.38;;;23.17;65.76
23166;BME280;11751;42.700;24.170;2022-08-26T06:28:28;93565.72;;;23.25;62.87
23166;BME280;11751;42.700;24.170;2022-08-26T06:30:54;93574.75;;;23.54;62.77
23166;BME280;11751;42.700;24.170;2022-08-26T06:33:21;93561.91;;;23.73;61.84
23166;BME280;11751;42.700;24.170;2022-08-26T06:35:47;93563.88;;;23.68;62.46
23166;BME280;11751;42.700;24.170;2022-08-26T06:38:14;93567.72;;;23.75;62.13
23166;BME280;11751;42.700;24.170;2022-08-26T06:40:51;93570.03;;;23.98;60.95
23166;BME280;11751;42.700;24.170;2022-08-26T06:43:19;93578.53;;;23.96;61.90
23166;BME280;11751;42.700;24.170;2022-08-26T06:45:46;93591.88;;;23.72;60.92
23166;BME280;11751;42.700;24.170;2022-08-26T06:48:14;93584.38;;;23.80;60.11
23166;BME280;11751;42.700;24.170;2022-08-26T06:50:40;93588.09;;;23.85;59.24
23166;BME280;11751;42.700;24.170;2022-08-26T06:53:07;93590.25;;;24.04;59.43
23166;BME280;11751;42.700;24.170;2022-08-26T06:55:38;93586.72;;;23.86;59.19
23166;BME280;11751;42.700;24.170;2022-08-26T06:58:03;93589.09;;;23.74;55.25
23166;BME280;11751;42.700;24.170;2022-08-26T07:00:28;93590.13;;;24.00;53.81
23166;BME280;11751;42.700;24.170;2022-08-26T07:02:56;93593.59;;;24.16;55.31
23166;BME280;11751;42.700;24.170;2022-08-26T07:05:21;93598.38;;;24.28;55.44
23166;BME280;11751;42.700;24.170;2022-08-26T07:07:47;93606.16;;;24.45;54.63
23166;BME280;11751;42.700;24.170;2022-08-26T07:10:13;93587.53;;;24.44;52.75
23166;BME280;11751;42.700;24.170;2022-08-26T07:12:39;93598.44;;;24.50;53.19
23166;BME280;11751;42.700;24.170;2022-08-26T07:15:05;93592.34;;;24.79;53.45
23166;BME280;11751;42.700;24.170;2022-08-26T07:17:30;93596.88;;;24.86;53.99
23166;BME280;11751;42.700;24.170;2022-08-26T07:19:55;93604.03;;;25.06;53.67
23166;BME280;11751;42.700;24.170;2022-08-26T07:22:21;93592.94;;;25.16;54.94
23166;BME280;11751;42.700;24.170;2022-08-26T07:24:46;93592.41;;;25.02;56.11
23166;BME280;11751;42.700;24.170;2022-08-26T07:27:13;93585.50;;;25.09;54.51
23166;BME280;11751;42.700;24.170;2022-08-26T07:29:40;93583.63;;;24.96;55.86
23166;BME280;11751;42.700;24.170;2022-08-26T07:32:08;93575.72;;;24.95;55.91
23166;BME280;11751;42.700;24.170;2022-08-26T07:34:36;93588.75;;;25.19;54.28
23166;BME280;11751;42.700;24.170;2022-08-26T07:37:02;93592.06;;;25.33;52.07
23166;BME280;11751;42.700;24.170;2022-08-26T07:39:27;93589.53;;;25.43;53.73
23166;BME280;11751;42.700;24.170;2022-08-26T07:41:53;93591.25;;;25.52;53.07
23166;BME280;11751;42.700;24.170;2022-08-26T07:44:19;93598.69;;;25.61;52.64
23166;BME280;11751;42.700;24.170;2022-08-26T07:46:45;93586.97;;;25.53;52.77
23166;BME280;11751;42.700;24.170;2022-08-26T07:49:10;93577.81;;;25.35;55.05
23166;BME280;11751;42.700;24.170;2022-08-26T07:51:37;93570.88;;;25.20;56.87
23166;BME280;11751;42.700;24.170;2022-08-26T07:54:04;93583.47;;;25.11;55.58
23166;BME280;11751;42.700;24.170;2022-08-26T07:56:29;93589.94;;;25.12;56.74
23166;BME280;11751;42.700;24.170;2022-08-26T07:58:55;93591.47;;;25.15;57.30
23166;BME280;11751;42.700;24.170;2022-08-26T08:01:22;93578.41;;;25.31;56.00
23166;BME280;11751;42.700;24.170;2022-08-26T08:03:49;93590.66;;;25.34;55.27
23166;BME280;11751;42.700;24.170;2022-08-26T08:06:16;93583.31;;;25.50;54.60
23166;BME280;11751;42.700;24.170;2022-08-26T08:08:42;93579.66;;;25.48;55.98
23166;BME280;11751;42.700;24.170;2022-08-26T08:11:09;93593.09;;;25.65;54.99
23166;BME280;11751;42.700;24.170;2022-08-26T08:13:35;93590.22;;;25.86;53.47
23166;BME280;11751;42.700;24.170;2022-08-26T08:16:01;93588.78;;;26.08;53.52
23166;BME280;11751;42.700;24.170;2022-08-26T08:18:27;93590.03;;;26.03;54.28
23166;BME280;11751;42.700;24.170;2022-08-26T08:20:53;93578.88;;;26.13;53.96
23166;BME280;11751;42.700;24.170;2022-08-26T08:23:18;93571.09;;;26.18;53.36
23166;BME280;11751;42.700;24.170;2022-08-26T08:25:44;93582.38;;;26.35;53.00
23166;BME280;11751;42.700;24.170;2022-08-26T08:28:09;93589.16;;;26.46;52.74
23166;BME280;11751;42.700;24.170;2022-08-26T08:30:37;93581.41;;;26.50;52.23
23166;BME280;11751;42.700;24.170;2022-08-26T08:33:03;93580.22;;;26.59;52.23
23166;BME280;11751;42.700;24.170;2022-08-26T08:35:29;93583.00;;;26.55;49.78
23166;BME280;11751;42.700;24.170;2022-08-26T08:37:54;93590.88;;;26.31;50.66
23166;BME280;11751;42.700;24.170;2022-08-26T08:40:23;93594.34;;;26.51;49.53
23166;BME280;11751;42.700;24.170;2022-08-26T08:43:02;93578.19;;;26.15;51.92
23166;BME280;11751;42.700;24.170;2022-08-26T08:45:35;93584.91;;;26.23;51.98
23166;BME280;11751;42.700;24.170;2022-08-26T08:48:35;93580.56;;;26.22;50.80
23166;BME280;11751;42.700;24.170;2022-08-26T08:51:16;93577.59;;;26.18;47.26
23166;BME280;11751;42.700;24.170;2022-08-26T08:53:44;93590.56;;;26.45;47.62
23166;BME280;11751;42.700;24.170;2022-08-26T08:56:38;93587.03;;;26.46;45.92
23166;BME280;11751;42.700;24.170;2022-08-26T08:59:20;93580.47;;;26.67;43.42
23166;BME280;11751;42.700;24.170;2022-08-26T09:02:15;93575.53;;;26.97;45.53
23166;BME280;11751;42.700;24.170;2022-08-26T09:05:09;93579.44;;;27.37;45.92
23166;BME280;11751;42.700;24.170;2022-08-26T09:10:49;93569.56;;;27.73;41.04
23166;BME280;11751;42.700;24.170;2022-08-26T09:13:18;93574.66;;;28.06;40.21
23166;BME280;11751;42.700;24.170;2022-08-26T09:16:24;93578.56;;;28.20;36.01
23166;BME280;11751;42.700;24.170;2022-08-26T09:21:24;93586.47;;;28.20;45.06
23166;BME280;11751;42.700;24.170;2022-08-26T09:23:51;93590.38;;;28.32;41.52
23166;BME280;11751;42.700;24.170;2022-08-26T09:26:20;93575.63;;;28.50;42.23
23166;BME280;11751;42.700;24.170;2022-08-26T09:28:59;93580.91;;;28.61;39.07
23166;BME280;11751;42.700;24.170;2022-08-26T09:31:27;93574.00;;;28.76;36.83
23166;BME280;11751;42.700;24.170;2022-08-26T09:34:15;93585.72;;;28.49;35.30
23166;BME280;11751;42.700;24.170;2022-08-26T09:36:41;93586.72;;;27.98;34.93
23166;BME280;11751;42.700;24.170;2022-08-26T09:44:56;93589.00;;;28.35;35.48
23166;BME280;11751;42.700;24.170;2022-08-26T09:47:37;93587.34;;;28.24;36.01
23166;BME280;11751;42.700;24.170;2022-08-26T09:50:09;93593.56;;;27.83;36.00
23166;BME280;11751;42.700;24.170;2022-08-26T09:52:42;93576.41;;;27.31;37.18
23166;BME280;11751;42.700;24.170;2022-08-26T09:57:43;93583.94;;;27.44;36.02
23166;BME280;11751;42.700;24.170;2022-08-26T10:00:34;93591.81;;;27.71;35.58
23166;BME280;11751;42.700;24.170;2022-08-26T10:03:04;93584.59;;;27.70;35.84
23166;BME280;11751;42.700;24.170;2022-08-26T10:05:39;93580.97;;;27.98;34.98
23166;BME280;11751;42.700;24.170;2022-08-26T10:08:35;93591.09;;;28.01;35.57
23166;BME280;11751;42.700;24.170;2022-08-26T10:11:13;93581.00;;;28.00;35.43
23166;BME280;11751;42.700;24.170;2022-08-26T10:13:44;93588.78;;;27.94;36.29
23166;BME280;11751;42.700;24.170;2022-08-26T10:16:20;93590.88;;;27.91;34.21
23166;BME280;11751;42.700;24.170;2022-08-26T10:18:51;93587.47;;;27.99;35.39
23166;BME280;11751;42.700;24.170;2022-08-26T10:24:17;93592.19;;;27.86;37.31
23166;BME280;11751;42.700;24.170;2022-08-26T10:26:53;93596.69;;;27.64;35.38
23166;BME280;11751;42.700;24.170;2022-08-26T10:29:30;93589.47;;;27.92;34.24
23166;BME280;11751;42.700;24.170;2022-08-26T10:32:00;93591.69;;;27.96;37.38
23166;BME280;11751;42.700;24.170;2022-08-26T10:34:30;93587.09;;;28.14;37.89
23166;BME280;11751;42.700;24.170;2022-08-26T10:37:03;93588.09;;;28.27;36.04
23166;BME280;11751;42.700;24.170;2022-08-26T10:42:15;93570.66;;;28.52;34.64
23166;BME280;11751;42.700;24.170;2022-08-26T10:44:42;93582.75;;;28.80;34.25
23166;BME280;11751;42.700;24.170;2022-08-26T10:47:16;93576.38;;;28.85;33.30
23166;BME280;11751;42.700;24.170;2022-08-26T10:49:44;93576.03;;;29.05;34.36
23166;BME280;11751;42.700;24.170;2022-08-26T10:55:03;93574.81;;;29.57;32.49
23166;BME280;11751;42.700;24.170;2022-08-26T11:00:28;93575.72;;;29.26;33.62
23166;BME280;11751;42.700;24.170;2022-08-26T11:03:39;93576.34;;;29.23;33.10
23166;BME280;11751;42.700;24.170;2022-08-26T11:08:47;93569.16;;;29.24;33.39
23166;BME280;11751;42.700;24.170;2022-08-26T11:14:06;93570.13;;;28.97;33.15
23166;BME280;11751;42.700;24.170;2022-08-26T11:16:44;93567.47;;;29.09;33.47
23166;BME280;11751;42.700;24.170;2022-08-26T11:22:01;93563.19;;;29.51;33.84
23166;BME280;11751;42.700;24.170;2022-08-26T11:24:40;93557.13;;;29.78;32.67
23166;BME280;11751;42.700;24.170;2022-08-26T11:27:13;93554.34;;;29.84;33.58
23166;BME280;11751;42.700;24.170;2022-08-26T11:40:15;93542.66;;;29.76;32.83
23166;BME280;11751;42.700;24.170;2022-08-26T11:42:45;93533.22;;;29.72;33.65
23166;BME280;11751;42.700;24.170;2022-08-26T11:48:20;93537.56;;;30.20;33.63
23166;BME280;11751;42.700;24.170;2022-08-26T11:50:57;93527.88;;;30.49;33.81
23166;BME280;11751;42.700;24.170;2022-08-26T11:53:25;93529.47;;;30.64;31.87
23166;BME280;11751;42.700;24.170;2022-08-26T11:55:53;93534.50;;;30.61;31.63
23166;BME280;11751;42.700;24.170;2022-08-26T11:58:20;93531.53;;;30.02;32.90
23166;BME280;11751;42.700;24.170;2022-08-26T12:03:21;93525.13;;;29.62;34.78
23166;BME280;11751;42.700;24.170;2022-08-26T12:05:49;93532.47;;;29.71;34.21
23166;BME280;11751;42.700;24.170;2022-08-26T12:08:19;93529.31;;;29.52;35.20
23166;BME280;11751;42.700;24.170;2022-08-26T12:10:46;93527.38;;;29.66;34.69
23166;BME280;11751;42.700;24.170;2022-08-26T12:13:24;93518.50;;;29.99;35.21
23166;BME280;11751;42.700;24.170;2022-08-26T12:15:54;93529.81;;;29.85;34.71
23166;BME280;11751;42.700;24.170;2022-08-26T12:18:32;93514.66;;;29.87;36.46
23166;BME280;11751;42.700;24.170;2022-08-26T12:21:02;93516.91;;;29.90;34.81
23166;BME280;11751;42.700;24.170;2022-08-26T12:28:52;93515.44;;;29.89;33.45
23166;BME280;11751;42.700;24.170;2022-08-26T12:31:24;93514.16;;;29.53;34.15
23166;BME280;11751;42.700;24.170;2022-08-26T12:33:51;93516.56;;;29.25;33.24
23166;BME280;11751;42.700;24.170;2022-08-26T12:36:24;93511.63;;;29.32;35.00
23166;BME280;11751;42.700;24.170;2022-08-26T12:38:52;93508.59;;;29.22;34.51
23166;BME280;11751;42.700;24.170;2022-08-26T12:41:57;93508.75;;;29.34;35.09
23166;BME280;11751;42.700;24.170;2022-08-26T12:44:44;93514.47;;;29.30;34.48
23166;BME280;11751;42.700;24.170;2022-08-26T12:50:07;93502.72;;;29.18;34.15
23166;BME280;11751;42.700;24.170;2022-08-26T12:55:23;93509.38;;;28.87;34.47
23166;BME280;11751;42.700;24.170;2022-08-26T12:58:30;93503.31;;;29.10;34.66
23166;BME280;11751;42.700;24.170;2022-08-26T13:03:39;93506.31;;;29.16;34.47
23166;BME280;11751;42.700;24.170;2022-08-26T13:13:59;93500.34;;;29.46;33.02
23166;BME280;11751;42.700;24.170;2022-08-26T13:16:25;93506.22;;;29.53;33.18
23166;BME280;11751;42.700;24.170;2022-08-26T13:18:53;93491.44;;;29.77;34.28
23166;BME280;11751;42.700;24.170;2022-08-26T13:21:31;93494.00;;;29.55;34.14
23166;BME280;11751;42.700;24.170;2022-08-26T13:24:13;93495.03;;;29.32;34.11
23166;BME280;11751;42.700;24.170;2022-08-26T13:26:43;93491.31;;;29.26;33.74
23166;BME280;11751;42.700;24.170;2022-08-26T13:29:10;93493.03;;;29.39;33.67
23166;BME280;11751;42.700;24.170;2022-08-26T13:31:38;93500.16;;;29.36;33.82
23166;BME280;11751;42.700;24.170;2022-08-26T13:34:06;93484.22;;;29.33;33.40
23166;BME280;11751;42.700;24.170;2022-08-26T13:36:32;93495.44;;;29.13;34.93
23166;BME280;11751;42.700;24.170;2022-08-26T13:39:00;93501.44;;;29.27;34.43
23166;BME280;11751;42.700;24.170;2022-08-26T13:41:25;93496.69;;;29.43;34.95
23166;BME280;11751;42.700;24.170;2022-08-26T13:43:51;93487.03;;;29.27;32.83
23166;BME280;11751;42.700;24.170;2022-08-26T13:46:16;93496.75;;;29.47;32.94
23166;BME280;11751;42.700;24.170;2022-08-26T13:48:44;93501.47;;;29.29;34.31
23166;BME280;11751;42.700;24.170;2022-08-26T13:51:09;93495.59;;;29.21;33.98
23166;BME280;11751;42.700;24.170;2022-08-26T13:53:35;93490.97;;;29.45;34.51
23166;BME280;11751;42.700;24.170;2022-08-26T13:56:00;93479.69;;;29.63;34.45
23166;BME280;11751;42.700;24.170;2022-08-26T13:58:27;93485.31;;;29.53;34.31
23166;BME280;11751;42.700;24.170;2022-08-26T14:00:53;93477.38;;;29.52;35.42
23166;BME280;11751;42.700;24.170;2022-08-26T14:03:19;93477.66;;;29.73;37.29
23166;BME280;11751;42.700;24.170;2022-08-26T14:05:44;93473.22;;;29.64;35.86
23166;BME280;11751;42.700;24.170;2022-08-26T14:08:10;93470.09;;;29.49;35.06
23166;BME280;11751;42.700;24.170;2022-08-26T14:10:36;93489.66;;;29.13;35.26
23166;BME280;11751;42.700;24.170;2022-08-26T14:13:01;93491.78;;;29.10;35.59
23166;BME280;11751;42.700;24.170;2022-08-26T14:15:27;93484.06;;;29.23;36.10
23166;BME280;11751;42.700;24.170;2022-08-26T14:17:53;93485.50;;;29.22;35.59